sensor_id;sensor_type;location;lat;lon;timestamp;P1;durP1;ratioP1;P2;durP2;ratioP2
7402;SDS011;3742;48.770;11.440;2022-08-01T00:01:31;5.20;;;2.60;;
7402;SDS011;3742;48.770;11.440;2022-08-01T00:03:59;3.90;;;2.37;;
7402;SDS011;3742;48.770;11.440;2022-08-01T00:06:28;7.27;;;2.50;;
7402;SDS011;3742;48.770;11.440;2022-08-01T00:08:58;5.50;;;2.77;;
7402;SDS011;3742;48.770;11.440;2022-08-01T00:11:26;3.93;;;2.50;;
7402;SDS011;3742;48.770;11.440;2022-08-01T00:13:55;7.80;;;2.87;;
7402;SDS011;3742;48.770;11.440;2022-08-01T00:16:23;5.10;;;2.97;;
7402;SDS011;3742;48.770;11.440;2022-08-01T00:18:52;5.30;;;2.77;;
7402;SDS011;3742;48.770;11.440;2022-08-01T00:21:21;3.60;;;2.70;;
7402;SDS011;3742;48.770;11.440;2022-08-01T00:23:50;3.27;;;2.97;;
7402;SDS011;3742;48.770;11.440;2022-08-01T00:26:19;5.70;;;2.83;;
7402;SDS011;3742;48.770;11.440;2022-08-01T00:28:48;6.57;;;2.80;;
7402;SDS011;3742;48.770;11.440;2022-08-01T00:31:16;4.17;;;2.90;;
7402;SDS011;3742;48.770;11.440;2022-08-01T00:33:47;4.53;;;2.70;;
7402;SDS011;3742;48.770;11.440;2022-08-01T00:36:15;3.80;;;2.50;;
7402;SDS011;3742;48.770;11.440;2022-08-01T00:38:44;3.50;;;2.90;;
7402;SDS011;3742;48.770;11.440;2022-08-01T00:41:12;2.53;;;2.33;;
7402;SDS011;3742;48.770;11.440;2022-08-01T00:43:42;4.77;;;2.73;;
7402;SDS011;3742;48.770;11.440;2022-08-01T00:46:10;6.07;;;2.87;;
7402;SDS011;3742;48.770;11.440;2022-08-01T00:48:39;9.00;;;3.23;;
7402;SDS011;3742;48.770;11.440;2022-08-01T00:51:07;4.47;;;3.17;;
7402;SDS011;3742;48.770;11.440;2022-08-01T00:53:36;3.67;;;2.73;;
7402;SDS011;3742;48.770;11.440;2022-08-01T00:56:18;4.43;;;3.00;;
7402;SDS011;3742;48.770;11.440;2022-08-01T00:58:49;3.50;;;3.00;;
7402;SDS011;3742;48.770;11.440;2022-08-01T01:01:17;4.00;;;2.67;;
7402;SDS011;3742;48.770;11.440;2022-08-01T01:03:47;3.30;;;2.73;;
7402;SDS011;3742;48.770;11.440;2022-08-01T01:06:31;3.23;;;2.60;;
7402;SDS011;3742;48.770;11.440;2022-08-01T01:09:15;4.80;;;2.90;;
7402;SDS011;3742;48.770;11.440;2022-08-01T01:11:48;3.13;;;2.60;;
7402;SDS011;3742;48.770;11.440;2022-08-01T01:14:27;3.30;;;3.00;;
7402;SDS011;3742;48.770;11.440;2022-08-01T01:16:59;2.80;;;2.33;;
7402;SDS011;3742;48.770;11.440;2022-08-01T01:19:30;6.87;;;3.00;;
7402;SDS011;3742;48.770;11.440;2022-08-01T01:25:08;4.07;;;3.20;;
7402;SDS011;3742;48.770;11.440;2022-08-01T01:27:50;2.70;;;2.50;;
7402;SDS011;3742;48.770;11.440;2022-08-01T01:30:34;3.80;;;3.03;;
7402;SDS011;3742;48.770;11.440;2022-08-01T01:33:03;6.10;;;2.77;;
7402;SDS011;3742;48.770;11.440;2022-08-01T01:35:35;5.20;;;2.67;;
7402;SDS011;3742;48.770;11.440;2022-08-01T01:38:10;4.40;;;3.20;;
7402;SDS011;3742;48.770;11.440;2022-08-01T01:40:40;7.10;;;2.90;;
7402;SDS011;3742;48.770;11.440;2022-08-01T01:43:10;3.27;;;2.93;;
7402;SDS011;3742;48.770;11.440;2022-08-01T01:45:40;3.70;;;2.83;;
7402;SDS011;3742;48.770;11.440;2022-08-01T01:48:10;3.80;;;2.90;;
7402;SDS011;3742;48.770;11.440;2022-08-01T01:50:42;3.33;;;3.00;;
7402;SDS011;3742;48.770;11.440;2022-08-01T01:53:12;7.17;;;3.30;;
7402;SDS011;3742;48.770;11.440;2022-08-01T01:55:41;6.43;;;3.00;;
7402;SDS011;3742;48.770;11.440;2022-08-01T01:58:16;4.63;;;2.83;;
7402;SDS011;3742;48.770;11.440;2022-08-01T02:00:48;3.93;;;3.17;;
7402;SDS011;3742;48.770;11.440;2022-08-01T02:03:18;3.40;;;3.00;;
7402;SDS011;3742;48.770;11.440;2022-08-01T02:05:47;5.07;;;3.37;;
7402;SDS011;3742;48.770;11.440;2022-08-01T02:08:16;5.83;;;3.10;;
7402;SDS011;3742;48.770;11.440;2022-08-01T02:10:45;5.33;;;2.87;;
7402;SDS011;3742;48.770;11.440;2022-08-01T02:13:28;3.23;;;2.77;;
7402;SDS011;3742;48.770;11.440;2022-08-01T02:15:59;3.93;;;2.87;;
7402;SDS011;3742;48.770;11.440;2022-08-01T02:18:28;3.50;;;2.90;;
7402;SDS011;3742;48.770;11.440;2022-08-01T02:20:57;5.37;;;2.90;;
7402;SDS011;3742;48.770;11.440;2022-08-01T02:23:27;3.70;;;2.90;;
7402;SDS011;3742;48.770;11.440;2022-08-01T02:25:58;6.23;;;3.10;;
7402;SDS011;3742;48.770;11.440;2022-08-01T02:28:38;7.33;;;3.00;;
7402;SDS011;3742;48.770;11.440;2022-08-01T02:31:12;3.80;;;3.10;;
7402;SDS011;3742;48.770;11.440;2022-08-01T02:33:43;3.97;;;2.60;;
7402;SDS011;3742;48.770;11.440;2022-08-01T02:36:13;3.93;;;2.93;;
7402;SDS011;3742;48.770;11.440;2022-08-01T02:38:59;3.27;;;2.97;;
7402;SDS011;3742;48.770;11.440;2022-08-01T02:41:28;3.50;;;2.60;;
7402;SDS011;3742;48.770;11.440;2022-08-01T02:43:59;4.10;;;2.70;;
7402;SDS011;3742;48.770;11.440;2022-08-01T02:46:33;4.80;;;3.13;;
7402;SDS011;3742;48.770;11.440;2022-08-01T02:49:03;4.73;;;2.47;;
7402;SDS011;3742;48.770;11.440;2022-08-01T02:51:34;2.80;;;2.50;;
7402;SDS011;3742;48.770;11.440;2022-08-01T02:54:03;4.40;;;2.83;;
7402;SDS011;3742;48.770;11.440;2022-08-01T02:56:33;4.73;;;2.63;;
7402;SDS011;3742;48.770;11.440;2022-08-01T02:59:05;3.07;;;2.67;;
7402;SDS011;3742;48.770;11.440;2022-08-01T03:01:37;2.97;;;2.67;;
7402;SDS011;3742;48.770;11.440;2022-08-01T03:04:08;5.17;;;2.87;;
7402;SDS011;3742;48.770;11.440;2022-08-01T03:06:37;3.37;;;2.60;;
7402;SDS011;3742;48.770;11.440;2022-08-01T03:09:08;5.17;;;2.43;;
7402;SDS011;3742;48.770;11.440;2022-08-01T03:11:37;3.20;;;2.57;;
7402;SDS011;3742;48.770;11.440;2022-08-01T03:14:08;2.70;;;2.50;;
7402;SDS011;3742;48.770;11.440;2022-08-01T03:16:39;3.43;;;2.60;;
7402;SDS011;3742;48.770;11.440;2022-08-01T03:19:10;3.00;;;2.30;;
7402;SDS011;3742;48.770;11.440;2022-08-01T03:21:40;2.80;;;2.40;;
7402;SDS011;3742;48.770;11.440;2022-08-01T03:24:09;3.13;;;2.40;;
7402;SDS011;3742;48.770;11.440;2022-08-01T03:26:38;3.57;;;2.90;;
7402;SDS011;3742;48.770;11.440;2022-08-01T03:29:08;3.10;;;2.80;;
7402;SDS011;3742;48.770;11.440;2022-08-01T03:31:39;3.97;;;2.63;;
7402;SDS011;3742;48.770;11.440;2022-08-01T03:34:10;3.20;;;2.57;;
7402;SDS011;3742;48.770;11.440;2022-08-01T03:36:41;2.80;;;2.60;;
7402;SDS011;3742;48.770;11.440;2022-08-01T03:39:11;3.57;;;2.80;;
7402;SDS011;3742;48.770;11.440;2022-08-01T03:41:41;6.20;;;2.60;;
7402;SDS011;3742;48.770;11.440;2022-08-01T03:44:13;4.10;;;3.10;;
7402;SDS011;3742;48.770;11.440;2022-08-01T03:46:45;4.00;;;2.43;;
7402;SDS011;3742;48.770;11.440;2022-08-01T03:49:17;3.77;;;2.57;;
7402;SDS011;3742;48.770;11.440;2022-08-01T03:51:47;2.87;;;2.40;;
7402;SDS011;3742;48.770;11.440;2022-08-01T03:54:17;3.03;;;2.30;;
7402;SDS011;3742;48.770;11.440;2022-08-01T03:56:48;2.90;;;2.60;;
7402;SDS011;3742;48.770;11.440;2022-08-01T03:59:18;3.07;;;2.50;;
7402;SDS011;3742;48.770;11.440;2022-08-01T04:01:48;3.67;;;2.60;;
7402;SDS011;3742;48.770;11.440;2022-08-01T04:04:17;6.03;;;2.50;;
7402;SDS011;3742;48.770;11.440;2022-08-01T04:06:45;3.13;;;2.40;;
7402;SDS011;3742;48.770;11.440;2022-08-01T04:09:17;3.10;;;2.00;;
7402;SDS011;3742;48.770;11.440;2022-08-01T04:11:45;3.50;;;2.33;;
7402;SDS011;3742;48.770;11.440;2022-08-01T04:14:14;4.47;;;2.40;;
7402;SDS011;3742;48.770;11.440;2022-08-01T04:16:43;2.80;;;2.40;;
7402;SDS011;3742;48.770;11.440;2022-08-01T04:19:13;2.33;;;2.13;;
7402;SDS011;3742;48.770;11.440;2022-08-01T04:21:42;3.60;;;2.37;;
7402;SDS011;3742;48.770;11.440;2022-08-01T04:24:11;5.23;;;2.43;;
7402;SDS011;3742;48.770;11.440;2022-08-01T04:26:41;4.57;;;2.70;;
7402;SDS011;3742;48.770;11.440;2022-08-01T04:29:11;5.23;;;2.73;;
7402;SDS011;3742;48.770;11.440;2022-08-01T04:31:43;4.40;;;2.37;;
7402;SDS011;3742;48.770;11.440;2022-08-01T04:34:15;2.80;;;2.50;;
7402;SDS011;3742;48.770;11.440;2022-08-01T04:36:46;3.03;;;2.40;;
7402;SDS011;3742;48.770;11.440;2022-08-01T04:39:16;3.57;;;2.70;;
7402;SDS011;3742;48.770;11.440;2022-08-01T04:41:46;3.10;;;2.50;;
7402;SDS011;3742;48.770;11.440;2022-08-01T04:44:15;5.03;;;2.50;;
7402;SDS011;3742;48.770;11.440;2022-08-01T04:46:44;5.13;;;2.80;;
7402;SDS011;3742;48.770;11.440;2022-08-01T04:49:16;3.00;;;2.47;;
7402;SDS011;3742;48.770;11.440;2022-08-01T04:51:51;3.63;;;2.87;;
7402;SDS011;3742;48.770;11.440;2022-08-01T04:54:24;3.83;;;2.83;;
7402;SDS011;3742;48.770;11.440;2022-08-01T04:56:53;4.17;;;2.50;;
7402;SDS011;3742;48.770;11.440;2022-08-01T04:59:22;4.73;;;2.40;;
7402;SDS011;3742;48.770;11.440;2022-08-01T05:02:09;2.77;;;2.50;;
7402;SDS011;3742;48.770;11.440;2022-08-01T05:04:40;4.13;;;2.63;;
7402;SDS011;3742;48.770;11.440;2022-08-01T05:07:09;4.03;;;2.70;;
7402;SDS011;3742;48.770;11.440;2022-08-01T05:09:39;4.60;;;2.67;;
7402;SDS011;3742;48.770;11.440;2022-08-01T05:12:08;3.93;;;2.80;;
7402;SDS011;3742;48.770;11.440;2022-08-01T05:14:37;4.30;;;2.60;;
7402;SDS011;3742;48.770;11.440;2022-08-01T05:17:07;6.47;;;2.63;;
7402;SDS011;3742;48.770;11.440;2022-08-01T05:19:37;3.73;;;2.40;;
7402;SDS011;3742;48.770;11.440;2022-08-01T05:22:08;3.23;;;2.93;;
7402;SDS011;3742;48.770;11.440;2022-08-01T05:24:37;3.37;;;2.40;;
7402;SDS011;3742;48.770;11.440;2022-08-01T05:27:07;2.77;;;2.50;;
7402;SDS011;3742;48.770;11.440;2022-08-01T05:29:39;3.33;;;2.20;;
7402;SDS011;3742;48.770;11.440;2022-08-01T05:32:10;5.13;;;2.07;;
7402;SDS011;3742;48.770;11.440;2022-08-01T05:34:39;3.33;;;2.33;;
7402;SDS011;3742;48.770;11.440;2022-08-01T05:37:09;8.27;;;2.47;;
7402;SDS011;3742;48.770;11.440;2022-08-01T05:39:38;3.47;;;2.50;;
7402;SDS011;3742;48.770;11.440;2022-08-01T05:42:06;3.97;;;2.47;;
7402;SDS011;3742;48.770;11.440;2022-08-01T05:44:35;4.30;;;2.87;;
7402;SDS011;3742;48.770;11.440;2022-08-01T05:47:03;3.83;;;2.63;;
7402;SDS011;3742;48.770;11.440;2022-08-01T05:49:32;2.93;;;2.70;;
7402;SDS011;3742;48.770;11.440;2022-08-01T05:52:01;2.87;;;2.30;;
7402;SDS011;3742;48.770;11.440;2022-08-01T05:54:31;2.87;;;2.40;;
7402;SDS011;3742;48.770;11.440;2022-08-01T05:57:00;3.43;;;2.07;;
7402;SDS011;3742;48.770;11.440;2022-08-01T05:59:28;5.57;;;2.63;;
7402;SDS011;3742;48.770;11.440;2022-08-01T06:01:57;5.23;;;2.10;;
7402;SDS011;3742;48.770;11.440;2022-08-01T06:04:26;2.80;;;2.50;;
7402;SDS011;3742;48.770;11.440;2022-08-01T06:06:54;2.57;;;2.10;;
7402;SDS011;3742;48.770;11.440;2022-08-01T06:09:26;5.30;;;2.30;;
7402;SDS011;3742;48.770;11.440;2022-08-01T06:11:56;3.57;;;2.43;;
7402;SDS011;3742;48.770;11.440;2022-08-01T06:14:24;4.23;;;2.33;;
7402;SDS011;3742;48.770;11.440;2022-08-01T06:16:53;4.20;;;2.73;;
7402;SDS011;3742;48.770;11.440;2022-08-01T06:19:22;2.67;;;2.23;;
7402;SDS011;3742;48.770;11.440;2022-08-01T06:21:50;3.43;;;2.03;;
7402;SDS011;3742;48.770;11.440;2022-08-01T06:24:19;2.70;;;2.30;;
7402;SDS011;3742;48.770;11.440;2022-08-01T06:26:53;5.80;;;2.57;;
7402;SDS011;3742;48.770;11.440;2022-08-01T06:29:24;4.40;;;2.50;;
7402;SDS011;3742;48.770;11.440;2022-08-01T06:31:57;3.83;;;2.17;;
7402;SDS011;3742;48.770;11.440;2022-08-01T06:34:26;2.63;;;2.30;;
7402;SDS011;3742;48.770;11.440;2022-08-01T06:36:54;8.20;;;2.80;;
7402;SDS011;3742;48.770;11.440;2022-08-01T06:39:23;2.57;;;2.10;;
7402;SDS011;3742;48.770;11.440;2022-08-01T06:41:51;2.53;;;2.00;;
7402;SDS011;3742;48.770;11.440;2022-08-01T06:44:20;3.87;;;2.83;;
7402;SDS011;3742;48.770;11.440;2022-08-01T06:46:50;4.70;;;2.63;;
7402;SDS011;3742;48.770;11.440;2022-08-01T06:49:18;3.20;;;2.40;;
7402;SDS011;3742;48.770;11.440;2022-08-01T06:51:47;4.33;;;2.37;;
7402;SDS011;3742;48.770;11.440;2022-08-01T06:54:15;6.97;;;2.53;;
7402;SDS011;3742;48.770;11.440;2022-08-01T06:56:44;4.10;;;2.20;;
7402;SDS011;3742;48.770;11.440;2022-08-01T06:59:12;4.67;;;2.87;;
7402;SDS011;3742;48.770;11.440;2022-08-01T07:01:49;5.73;;;2.90;;
7402;SDS011;3742;48.770;11.440;2022-08-01T07:04:18;2.60;;;2.40;;
7402;SDS011;3742;48.770;11.440;2022-08-01T07:06:48;4.77;;;2.70;;
7402;SDS011;3742;48.770;11.440;2022-08-01T07:09:21;4.43;;;2.90;;
7402;SDS011;3742;48.770;11.440;2022-08-01T07:12:16;5.03;;;2.60;;
7402;SDS011;3742;48.770;11.440;2022-08-01T07:14:45;4.67;;;2.67;;
7402;SDS011;3742;48.770;11.440;2022-08-01T07:17:16;7.13;;;2.53;;
7402;SDS011;3742;48.770;11.440;2022-08-01T07:19:44;5.90;;;2.73;;
7402;SDS011;3742;48.770;11.440;2022-08-01T07:22:13;7.13;;;2.80;;
7402;SDS011;3742;48.770;11.440;2022-08-01T07:24:49;2.93;;;2.30;;
7402;SDS011;3742;48.770;11.440;2022-08-01T07:27:20;5.13;;;2.80;;
7402;SDS011;3742;48.770;11.440;2022-08-01T07:29:52;3.77;;;2.37;;
7402;SDS011;3742;48.770;11.440;2022-08-01T07:32:23;3.70;;;2.30;;
7402;SDS011;3742;48.770;11.440;2022-08-01T07:34:52;2.80;;;2.40;;
7402;SDS011;3742;48.770;11.440;2022-08-01T07:37:20;3.03;;;2.33;;
7402;SDS011;3742;48.770;11.440;2022-08-01T07:40:09;3.53;;;2.50;;
7402;SDS011;3742;48.770;11.440;2022-08-01T07:42:38;3.57;;;2.40;;
7402;SDS011;3742;48.770;11.440;2022-08-01T07:45:10;4.83;;;2.60;;
7402;SDS011;3742;48.770;11.440;2022-08-01T07:47:40;2.83;;;2.53;;
7402;SDS011;3742;48.770;11.440;2022-08-01T07:50:09;2.47;;;2.27;;
7402;SDS011;3742;48.770;11.440;2022-08-01T07:52:39;2.83;;;2.30;;
7402;SDS011;3742;48.770;11.440;2022-08-01T07:55:08;2.90;;;2.60;;
7402;SDS011;3742;48.770;11.440;2022-08-01T07:57:42;3.47;;;2.70;;
7402;SDS011;3742;48.770;11.440;2022-08-01T08:00:11;3.07;;;2.50;;
7402;SDS011;3742;48.770;11.440;2022-08-01T08:02:42;5.10;;;2.40;;
7402;SDS011;3742;48.770;11.440;2022-08-01T08:05:11;2.70;;;2.50;;
7402;SDS011;3742;48.770;11.440;2022-08-01T08:07:39;4.90;;;2.50;;
7402;SDS011;3742;48.770;11.440;2022-08-01T08:10:08;6.80;;;2.97;;
7402;SDS011;3742;48.770;11.440;2022-08-01T08:12:37;3.57;;;2.30;;
7402;SDS011;3742;48.770;11.440;2022-08-01T08:15:11;5.57;;;3.60;;
7402;SDS011;3742;48.770;11.440;2022-08-01T08:18:36;4.00;;;2.70;;
7402;SDS011;3742;48.770;11.440;2022-08-01T08:21:05;3.33;;;2.57;;
7402;SDS011;3742;48.770;11.440;2022-08-01T08:23:33;6.03;;;2.83;;
7402;SDS011;3742;48.770;11.440;2022-08-01T08:26:16;6.00;;;3.30;;
7402;SDS011;3742;48.770;11.440;2022-08-01T08:28:44;4.97;;;2.70;;
7402;SDS011;3742;48.770;11.440;2022-08-01T08:31:13;4.70;;;2.90;;
7402;SDS011;3742;48.770;11.440;2022-08-01T08:34:03;5.03;;;3.00;;
7402;SDS011;3742;48.770;11.440;2022-08-01T08:36:31;3.20;;;2.40;;
7402;SDS011;3742;48.770;11.440;2022-08-01T08:39:00;4.80;;;2.60;;
7402;SDS011;3742;48.770;11.440;2022-08-01T08:41:29;5.93;;;2.67;;
7402;SDS011;3742;48.770;11.440;2022-08-01T08:44:04;2.60;;;2.40;;
7402;SDS011;3742;48.770;11.440;2022-08-01T08:46:40;2.63;;;2.43;;
7402;SDS011;3742;48.770;11.440;2022-08-01T08:49:11;2.63;;;2.40;;
7402;SDS011;3742;48.770;11.440;2022-08-01T08:51:41;2.50;;;2.27;;
7402;SDS011;3742;48.770;11.440;2022-08-01T08:54:11;4.23;;;2.90;;
7402;SDS011;3742;48.770;11.440;2022-08-01T08:56:40;5.20;;;2.63;;
7402;SDS011;3742;48.770;11.440;2022-08-01T08:59:11;4.40;;;3.10;;
7402;SDS011;3742;48.770;11.440;2022-08-01T09:01:41;3.50;;;2.80;;
7402;SDS011;3742;48.770;11.440;2022-08-01T09:04:11;8.87;;;3.20;;
7402;SDS011;3742;48.770;11.440;2022-08-01T09:06:40;3.10;;;2.70;;
7402;SDS011;3742;48.770;11.440;2022-08-01T09:09:09;6.03;;;2.65;;
7402;SDS011;3742;48.770;11.440;2022-08-01T09:11:38;4.00;;;2.70;;
7402;SDS011;3742;48.770;11.440;2022-08-01T09:14:07;3.07;;;2.50;;
7402;SDS011;3742;48.770;11.440;2022-08-01T09:16:39;3.22;;;2.20;;
7402;SDS011;3742;48.770;11.440;2022-08-01T09:19:17;3.95;;;2.75;;
7402;SDS011;3742;48.770;11.440;2022-08-01T09:22:07;3.22;;;2.58;;
7402;SDS011;3742;48.770;11.440;2022-08-01T09:24:37;2.67;;;2.47;;
7402;SDS011;3742;48.770;11.440;2022-08-01T09:27:17;4.00;;;2.60;;
7402;SDS011;3742;48.770;11.440;2022-08-01T09:29:48;6.33;;;2.97;;
7402;SDS011;3742;48.770;11.440;2022-08-01T09:32:29;4.57;;;2.43;;
7402;SDS011;3742;48.770;11.440;2022-08-01T09:38:14;4.03;;;2.80;;
7402;SDS011;3742;48.770;11.440;2022-08-01T09:40:44;2.70;;;2.40;;
7402;SDS011;3742;48.770;11.440;2022-08-01T09:43:15;2.28;;;2.08;;
7402;SDS011;3742;48.770;11.440;2022-08-01T09:45:45;4.00;;;2.03;;
7402;SDS011;3742;48.770;11.440;2022-08-01T09:48:17;2.47;;;1.83;;
7402;SDS011;3742;48.770;11.440;2022-08-01T09:50:52;3.38;;;1.83;;
7402;SDS011;3742;48.770;11.440;2022-08-01T09:53:21;2.40;;;1.80;;
7402;SDS011;3742;48.770;11.440;2022-08-01T09:56:07;1.50;;;1.40;;
7402;SDS011;3742;48.770;11.440;2022-08-01T09:58:48;1.70;;;1.60;;
7402;SDS011;3742;48.770;11.440;2022-08-01T10:01:26;2.30;;;1.80;;
7402;SDS011;3742;48.770;11.440;2022-08-01T10:04:05;1.98;;;1.50;;
7402;SDS011;3742;48.770;11.440;2022-08-01T10:06:38;1.63;;;1.40;;
7402;SDS011;3742;48.770;11.440;2022-08-01T10:09:10;2.92;;;1.52;;
7402;SDS011;3742;48.770;11.440;2022-08-01T10:11:40;1.77;;;1.48;;
7402;SDS011;3742;48.770;11.440;2022-08-01T10:14:11;2.33;;;1.42;;
7402;SDS011;3742;48.770;11.440;2022-08-01T10:16:44;3.35;;;1.60;;
7402;SDS011;3742;48.770;11.440;2022-08-01T10:19:23;5.35;;;1.35;;
7402;SDS011;3742;48.770;11.440;2022-08-01T10:21:57;1.48;;;1.10;;
7402;SDS011;3742;48.770;11.440;2022-08-01T10:24:27;1.58;;;1.38;;
7402;SDS011;3742;48.770;11.440;2022-08-01T10:27:02;1.75;;;1.20;;
7402;SDS011;3742;48.770;11.440;2022-08-01T10:29:42;1.60;;;1.50;;
7402;SDS011;3742;48.770;11.440;2022-08-01T10:32:32;1.63;;;1.52;;
7402;SDS011;3742;48.770;11.440;2022-08-01T10:35:06;1.63;;;1.35;;
7402;SDS011;3742;48.770;11.440;2022-08-01T10:37:43;4.25;;;1.60;;
7402;SDS011;3742;48.770;11.440;2022-08-01T10:40:18;1.95;;;1.50;;
7402;SDS011;3742;48.770;11.440;2022-08-01T10:43:03;1.77;;;1.50;;
7402;SDS011;3742;48.770;11.440;2022-08-01T10:45:31;1.58;;;1.40;;
7402;SDS011;3742;48.770;11.440;2022-08-01T10:48:02;1.90;;;1.50;;
7402;SDS011;3742;48.770;11.440;2022-08-01T10:50:37;1.25;;;1.15;;
7402;SDS011;3742;48.770;11.440;2022-08-01T10:53:16;2.38;;;1.27;;
7402;SDS011;3742;48.770;11.440;2022-08-01T10:55:57;4.35;;;1.42;;
7402;SDS011;3742;48.770;11.440;2022-08-01T10:58:30;1.80;;;1.30;;
7402;SDS011;3742;48.770;11.440;2022-08-01T11:01:14;3.33;;;1.60;;
7402;SDS011;3742;48.770;11.440;2022-08-01T11:06:52;3.10;;;1.70;;
7402;SDS011;3742;48.770;11.440;2022-08-01T11:09:24;1.90;;;1.30;;
7402;SDS011;3742;48.770;11.440;2022-08-01T11:12:05;3.58;;;1.40;;
7402;SDS011;3742;48.770;11.440;2022-08-01T11:17:57;2.55;;;1.67;;
7402;SDS011;3742;48.770;11.440;2022-08-01T11:20:28;1.88;;;1.55;;
7402;SDS011;3742;48.770;11.440;2022-08-01T11:26:08;1.70;;;1.60;;
7402;SDS011;3742;48.770;11.440;2022-08-01T11:28:44;2.47;;;1.58;;
7402;SDS011;3742;48.770;11.440;2022-08-01T11:31:33;1.58;;;1.40;;
7402;SDS011;3742;48.770;11.440;2022-08-01T11:34:04;2.17;;;1.35;;
7402;SDS011;3742;48.770;11.440;2022-08-01T11:36:33;1.48;;;1.30;;
7402;SDS011;3742;48.770;11.440;2022-08-01T11:39:21;1.45;;;1.33;;
7402;SDS011;3742;48.770;11.440;2022-08-01T11:41:51;1.85;;;1.55;;
7402;SDS011;3742;48.770;11.440;2022-08-01T11:44:22;1.40;;;1.30;;
7402;SDS011;3742;48.770;11.440;2022-08-01T11:46:57;1.98;;;1.42;;
7402;SDS011;3742;48.770;11.440;2022-08-01T11:52:26;2.15;;;1.30;;
7402;SDS011;3742;48.770;11.440;2022-08-01T11:54:55;1.55;;;1.45;;
7402;SDS011;3742;48.770;11.440;2022-08-01T11:57:27;3.25;;;1.65;;
7402;SDS011;3742;48.770;11.440;2022-08-01T12:00:03;1.95;;;1.50;;
7402;SDS011;3742;48.770;11.440;2022-08-01T12:02:40;3.08;;;1.73;;
7402;SDS011;3742;48.770;11.440;2022-08-01T12:05:12;1.70;;;1.33;;
7402;SDS011;3742;48.770;11.440;2022-08-01T12:07:43;2.03;;;1.70;;
7402;SDS011;3742;48.770;11.440;2022-08-01T12:10:14;1.75;;;1.35;;
7402;SDS011;3742;48.770;11.440;2022-08-01T12:12:45;3.63;;;1.60;;
7402;SDS011;3742;48.770;11.440;2022-08-01T12:15:15;1.85;;;1.25;;
7402;SDS011;3742;48.770;11.440;2022-08-01T12:17:44;2.20;;;1.35;;
7402;SDS011;3742;48.770;11.440;2022-08-01T12:20:25;1.85;;;1.50;;
7402;SDS011;3742;48.770;11.440;2022-08-01T12:22:58;2.67;;;1.30;;
7402;SDS011;3742;48.770;11.440;2022-08-01T12:25:28;3.65;;;1.60;;
7402;SDS011;3742;48.770;11.440;2022-08-01T12:28:00;3.25;;;1.20;;
7402;SDS011;3742;48.770;11.440;2022-08-01T12:30:29;1.55;;;1.33;;
7402;SDS011;3742;48.770;11.440;2022-08-01T12:33:02;2.35;;;1.50;;
7402;SDS011;3742;48.770;11.440;2022-08-01T12:35:32;1.60;;;1.48;;
7402;SDS011;3742;48.770;11.440;2022-08-01T12:38:02;3.90;;;1.90;;
7402;SDS011;3742;48.770;11.440;2022-08-01T12:40:33;4.43;;;1.50;;
7402;SDS011;3742;48.770;11.440;2022-08-01T12:43:15;2.15;;;1.77;;
7402;SDS011;3742;48.770;11.440;2022-08-01T12:45:55;1.67;;;1.23;;
7402;SDS011;3742;48.770;11.440;2022-08-01T12:48:24;1.45;;;1.35;;
7402;SDS011;3742;48.770;11.440;2022-08-01T12:50:53;2.17;;;1.38;;
7402;SDS011;3742;48.770;11.440;2022-08-01T12:53:25;1.70;;;1.33;;
7402;SDS011;3742;48.770;11.440;2022-08-01T12:56:08;2.65;;;1.58;;
7402;SDS011;3742;48.770;11.440;2022-08-01T12:58:39;2.45;;;1.70;;
7402;SDS011;3742;48.770;11.440;2022-08-01T13:01:08;2.83;;;1.30;;
7402;SDS011;3742;48.770;11.440;2022-08-01T13:03:39;1.48;;;1.30;;
7402;SDS011;3742;48.770;11.440;2022-08-01T13:06:11;2.00;;;1.60;;
7402;SDS011;3742;48.770;11.440;2022-08-01T13:08:42;2.08;;;1.77;;
7402;SDS011;3742;48.770;11.440;2022-08-01T13:11:12;4.50;;;2.10;;
7402;SDS011;3742;48.770;11.440;2022-08-01T13:13:44;1.90;;;1.48;;
7402;SDS011;3742;48.770;11.440;2022-08-01T13:16:15;2.88;;;1.70;;
7402;SDS011;3742;48.770;11.440;2022-08-01T13:19:04;2.85;;;2.42;;
7402;SDS011;3742;48.770;11.440;2022-08-01T13:21:34;2.95;;;1.95;;
7402;SDS011;3742;48.770;11.440;2022-08-01T13:24:25;2.05;;;1.85;;
7402;SDS011;3742;48.770;11.440;2022-08-01T13:26:55;2.80;;;1.70;;
7402;SDS011;3742;48.770;11.440;2022-08-01T13:29:31;2.75;;;2.20;;
7402;SDS011;3742;48.770;11.440;2022-08-01T13:32:11;2.80;;;2.22;;
7402;SDS011;3742;48.770;11.440;2022-08-01T13:35:02;4.03;;;1.73;;
7402;SDS011;3742;48.770;11.440;2022-08-01T13:37:32;2.00;;;1.80;;
7402;SDS011;3742;48.770;11.440;2022-08-01T13:40:03;2.22;;;1.60;;
7402;SDS011;3742;48.770;11.440;2022-08-01T13:42:31;3.58;;;1.70;;
7402;SDS011;3742;48.770;11.440;2022-08-01T13:45:02;2.55;;;1.95;;
7402;SDS011;3742;48.770;11.440;2022-08-01T13:47:40;2.95;;;1.80;;
7402;SDS011;3742;48.770;11.440;2022-08-01T13:50:29;2.38;;;1.85;;
7402;SDS011;3742;48.770;11.440;2022-08-01T13:52:58;1.85;;;1.50;;
7402;SDS011;3742;48.770;11.440;2022-08-01T13:55:27;4.32;;;1.80;;
7402;SDS011;3742;48.770;11.440;2022-08-01T13:58:00;2.42;;;1.40;;
7402;SDS011;3742;48.770;11.440;2022-08-01T14:00:31;1.60;;;1.50;;
7402;SDS011;3742;48.770;11.440;2022-08-01T14:03:00;2.40;;;1.65;;
7402;SDS011;3742;48.770;11.440;2022-08-01T14:05:29;1.95;;;1.35;;
7402;SDS011;3742;48.770;11.440;2022-08-01T14:07:58;3.15;;;1.60;;
7402;SDS011;3742;48.770;11.440;2022-08-01T14:10:27;1.40;;;1.30;;
7402;SDS011;3742;48.770;11.440;2022-08-01T14:12:56;2.60;;;1.98;;
7402;SDS011;3742;48.770;11.440;2022-08-01T14:15:28;1.75;;;1.52;;
7402;SDS011;3742;48.770;11.440;2022-08-01T14:18:07;3.30;;;1.63;;
7402;SDS011;3742;48.770;11.440;2022-08-01T14:20:37;1.50;;;1.40;;
7402;SDS011;3742;48.770;11.440;2022-08-01T14:23:06;1.85;;;1.52;;
7402;SDS011;3742;48.770;11.440;2022-08-01T14:25:35;3.35;;;1.90;;
7402;SDS011;3742;48.770;11.440;2022-08-01T14:28:25;2.63;;;1.65;;
7402;SDS011;3742;48.770;11.440;2022-08-01T14:30:55;5.28;;;1.80;;
7402;SDS011;3742;48.770;11.440;2022-08-01T14:33:26;2.95;;;1.90;;
7402;SDS011;3742;48.770;11.440;2022-08-01T14:35:55;1.42;;;1.30;;
7402;SDS011;3742;48.770;11.440;2022-08-01T14:38:43;1.83;;;1.60;;
7402;SDS011;3742;48.770;11.440;2022-08-01T14:41:12;2.78;;;1.75;;
7402;SDS011;3742;48.770;11.440;2022-08-01T14:43:41;2.38;;;1.45;;
7402;SDS011;3742;48.770;11.440;2022-08-01T14:46:10;5.25;;;1.58;;
7402;SDS011;3742;48.770;11.440;2022-08-01T14:48:41;1.30;;;1.20;;
7402;SDS011;3742;48.770;11.440;2022-08-01T14:51:09;1.70;;;1.60;;
7402;SDS011;3742;48.770;11.440;2022-08-01T14:53:38;2.22;;;1.55;;
7402;SDS011;3742;48.770;11.440;2022-08-01T14:56:13;1.63;;;1.40;;
7402;SDS011;3742;48.770;11.440;2022-08-01T14:58:42;3.45;;;1.38;;
7402;SDS011;3742;48.770;11.440;2022-08-01T15:01:10;2.38;;;1.50;;
7402;SDS011;3742;48.770;11.440;2022-08-01T15:03:41;4.88;;;1.58;;
7402;SDS011;3742;48.770;11.440;2022-08-01T15:06:09;6.68;;;1.98;;
7402;SDS011;3742;48.770;11.440;2022-08-01T15:08:39;2.92;;;1.40;;
7402;SDS011;3742;48.770;11.440;2022-08-01T15:11:08;3.38;;;1.63;;
7402;SDS011;3742;48.770;11.440;2022-08-01T15:13:36;2.35;;;1.20;;
7402;SDS011;3742;48.770;11.440;2022-08-01T15:16:09;3.42;;;1.77;;
7402;SDS011;3742;48.770;11.440;2022-08-01T15:18:38;1.85;;;1.45;;
7402;SDS011;3742;48.770;11.440;2022-08-01T15:21:10;2.95;;;1.23;;
7402;SDS011;3742;48.770;11.440;2022-08-01T15:23:59;1.45;;;1.30;;
7402;SDS011;3742;48.770;11.440;2022-08-01T15:26:28;2.65;;;1.30;;
7402;SDS011;3742;48.770;11.440;2022-08-01T15:28:56;6.18;;;1.60;;
7402;SDS011;3742;48.770;11.440;2022-08-01T15:31:25;3.35;;;1.70;;
7402;SDS011;3742;48.770;11.440;2022-08-01T15:33:53;3.58;;;2.00;;
7402;SDS011;3742;48.770;11.440;2022-08-01T15:36:23;6.30;;;1.80;;
7402;SDS011;3742;48.770;11.440;2022-08-01T15:38:52;3.45;;;2.20;;
7402;SDS011;3742;48.770;11.440;2022-08-01T15:41:22;3.38;;;1.90;;
7402;SDS011;3742;48.770;11.440;2022-08-01T15:43:50;2.85;;;2.17;;
7402;SDS011;3742;48.770;11.440;2022-08-01T15:46:22;2.83;;;2.35;;
7402;SDS011;3742;48.770;11.440;2022-08-01T15:48:51;4.32;;;2.05;;